createdAt,value
2018-07-17T00:00:27.860Z,3.40
2018-07-17T00:02:58.459Z,3.60
2018-07-17T00:05:28.477Z,3.60
2018-07-17T00:07:58.878Z,3.80
2018-07-17T00:10:28.864Z,3.40
2018-07-17T00:12:58.989Z,4.10
2018-07-17T00:15:29.158Z,3.73
2018-07-17T00:17:59.608Z,3.70
2018-07-17T00:20:30.404Z,4.33
2018-07-17T00:23:00.823Z,3.90
2018-07-17T00:25:31.029Z,3.20
2018-07-17T00:28:01.261Z,3.83
2018-07-17T00:30:31.514Z,4.00
2018-07-17T00:33:01.781Z,4.57
2018-07-17T00:35:31.754Z,4.03
2018-07-17T00:38:01.939Z,3.77
2018-07-17T00:40:32.218Z,3.43
2018-07-17T00:43:02.365Z,4.27
2018-07-17T00:45:32.564Z,3.30
2018-07-17T00:48:02.952Z,3.20
2018-07-17T00:50:32.962Z,3.23
2018-07-17T00:53:03.142Z,3.40
2018-07-17T00:55:33.501Z,3.00
2018-07-17T00:58:03.674Z,3.13
2018-07-17T01:00:39.122Z,3.50
2018-07-17T01:03:14.682Z,3.20
2018-07-17T01:05:49.789Z,3.30
2018-07-17T01:08:24.814Z,3.50
2018-07-17T01:11:00.005Z,3.60
2018-07-17T01:13:48.731Z,3.30
2018-07-17T01:16:19.004Z,3.03
2018-07-17T01:18:49.103Z,3.50
2018-07-17T01:21:19.352Z,3.57
2018-07-17T01:23:49.631Z,3.17
2018-07-17T01:26:19.771Z,3.27
2018-07-17T01:28:49.819Z,2.87
2018-07-17T01:31:20.152Z,3.07
2018-07-17T01:33:50.680Z,2.90
2018-07-17T01:36:21.041Z,2.83
2018-07-17T01:38:51.364Z,3.07
2018-07-17T01:41:21.587Z,3.00
2018-07-17T01:43:51.983Z,3.07
2018-07-17T01:46:22.532Z,3.13
2018-07-17T01:48:52.714Z,3.07
2018-07-17T01:51:23.012Z,3.55
2018-07-17T01:53:53.379Z,2.90
2018-07-17T01:56:23.573Z,3.30
2018-07-17T01:58:53.679Z,3.10
2018-07-17T02:01:24.009Z,2.80
2018-07-17T02:03:54.174Z,3.00
2018-07-17T02:06:24.538Z,2.93
2018-07-17T02:08:54.859Z,3.00
2018-07-17T02:11:25.027Z,3.07
2018-07-17T02:13:55.112Z,3.17
2018-07-17T02:16:25.590Z,3.70
2018-07-17T02:18:55.604Z,3.30
2018-07-17T02:21:25.552Z,2.97
2018-07-17T02:23:56.498Z,3.42
2018-07-17T02:26:27.642Z,3.17
2018-07-17T02:28:58.393Z,3.07
2018-07-17T02:31:29.616Z,3.22
2018-07-17T02:34:00.741Z,3.20
2018-07-17T02:36:31.758Z,3.37
2018-07-17T02:39:03.178Z,3.17
2018-07-17T02:41:33.936Z,3.22
2018-07-17T02:44:04.852Z,3.20
2018-07-17T02:46:35.877Z,3.37
2018-07-17T02:49:06.812Z,3.30
2018-07-17T02:51:37.998Z,3.20
2018-07-17T02:54:08.934Z,3.47
2018-07-17T03:04:03.998Z,3.33
2018-07-17T03:06:41.239Z,3.60
2018-07-17T03:09:11.356Z,3.20
2018-07-17T03:11:41.686Z,3.43
2018-07-17T03:14:11.756Z,3.33
2018-07-17T03:16:41.981Z,3.47
2018-07-17T03:19:12.537Z,3.30
2018-07-17T03:21:43.141Z,3.33
2018-07-17T03:24:13.460Z,3.50
2018-07-17T03:26:43.577Z,3.87
2018-07-17T03:29:14.055Z,3.52
2018-07-17T03:31:44.314Z,3.73
2018-07-17T03:34:14.374Z,3.43
2018-07-17T03:36:44.518Z,3.63
2018-07-17T03:39:14.602Z,3.35
2018-07-17T03:41:44.757Z,3.70
2018-07-17T03:44:14.857Z,3.55
2018-07-17T03:46:45.256Z,3.65
2018-07-17T03:49:15.406Z,4.12
2018-07-17T03:51:45.668Z,3.90
2018-07-17T03:54:15.686Z,3.50
2018-07-17T03:56:45.954Z,3.60
2018-07-17T03:59:16.205Z,4.30
2018-07-17T04:01:46.283Z,4.10
2018-07-17T04:04:16.591Z,3.30
2018-07-17T04:06:46.613Z,3.50
2018-07-17T04:09:16.803Z,3.40
2018-07-17T04:11:47.101Z,4.10
2018-07-17T04:14:17.154Z,5.00
2018-07-17T04:16:55.373Z,4.00
2018-07-17T04:19:26.569Z,3.83
2018-07-17T04:21:56.755Z,3.77
2018-07-17T04:24:26.987Z,3.90
2018-07-17T04:26:57.067Z,3.60
2018-07-17T04:29:27.423Z,3.93
2018-07-17T04:31:57.550Z,4.00
2018-07-17T04:34:27.701Z,4.23
2018-07-17T04:36:57.911Z,4.17
2018-07-17T04:39:27.984Z,4.60
2018-07-17T04:41:58.232Z,4.45
2018-07-17T04:54:03.342Z,4.33
2018-07-17T04:56:34.183Z,4.20
2018-07-17T04:59:05.352Z,5.13
2018-07-17T05:01:36.155Z,4.80
2018-07-17T05:04:06.626Z,4.97
2018-07-17T05:06:36.749Z,4.73
2018-07-17T05:09:09.221Z,4.90
2018-07-17T05:11:39.357Z,4.50
2018-07-17T05:14:09.826Z,4.63
2018-07-17T05:16:40.392Z,4.33
2018-07-17T05:19:10.656Z,4.37
2018-07-17T05:21:40.911Z,4.80
2018-07-17T05:24:11.050Z,4.60
2018-07-17T05:26:41.423Z,4.33
2018-07-17T05:29:11.706Z,4.13
2018-07-17T05:31:42.005Z,4.97
2018-07-17T05:34:12.300Z,4.77
2018-07-17T05:36:42.651Z,4.50
2018-07-17T05:39:13.111Z,4.00
2018-07-17T05:41:43.469Z,4.37
2018-07-17T05:44:13.539Z,4.30
2018-07-17T05:46:43.786Z,3.87
2018-07-17T05:49:13.996Z,3.57
2018-07-17T05:51:44.237Z,3.83
2018-07-17T05:54:14.390Z,3.60
2018-07-17T05:56:44.703Z,3.53
2018-07-17T05:59:15.015Z,4.03
2018-07-17T06:01:45.526Z,3.40
2018-07-17T06:04:15.993Z,3.83
2018-07-17T06:06:46.293Z,4.00
2018-07-17T06:09:16.591Z,3.60
2018-07-17T06:11:46.856Z,3.40
2018-07-17T06:14:17.171Z,3.80
2018-07-17T06:16:47.269Z,3.40
2018-07-17T06:19:17.584Z,3.10
2018-07-17T06:21:47.696Z,3.50
2018-07-17T06:24:17.920Z,4.20
2018-07-17T06:26:48.259Z,3.83
2018-07-17T06:29:18.472Z,4.47
2018-07-17T06:31:49.149Z,5.00
2018-07-17T06:34:19.502Z,4.87
2018-07-17T06:36:49.745Z,5.50
2018-07-17T06:39:20.439Z,6.37
2018-07-17T06:41:50.872Z,6.17
2018-07-17T06:44:21.536Z,4.40
2018-07-17T06:46:51.882Z,4.97
2018-07-17T06:49:22.420Z,6.37
2018-07-17T06:51:52.762Z,4.70
2018-07-17T06:54:23.223Z,6.60
2018-07-17T06:56:53.563Z,6.77
2018-07-17T06:59:24.357Z,7.27
2018-07-17T07:01:54.666Z,8.27
2018-07-17T07:04:25.208Z,7.00
2018-07-17T07:06:55.771Z,7.83
2018-07-17T07:09:26.077Z,9.53
2018-07-17T07:11:56.297Z,7.03
2018-07-17T07:14:26.533Z,8.93
2018-07-17T07:16:56.735Z,7.57
2018-07-17T07:19:27.057Z,8.53
2018-07-17T07:22:03.826Z,7.70
2018-07-17T07:24:34.971Z,7.80
2018-07-17T07:27:06.207Z,8.43
2018-07-17T07:29:36.483Z,8.35
2018-07-17T07:34:04.387Z,7.80
2018-07-17T07:36:34.894Z,13.77
2018-07-17T07:39:07.756Z,7.40
2018-07-17T07:41:38.120Z,7.93
2018-07-17T07:44:08.356Z,6.90
2018-07-17T07:46:38.641Z,7.97
2018-07-17T07:49:08.706Z,7.63
2018-07-17T07:51:39.057Z,7.70
2018-07-17T07:54:09.200Z,7.10
2018-07-17T07:56:39.512Z,8.13
2018-07-17T07:59:09.743Z,6.97
2018-07-17T08:01:40.236Z,7.80
2018-07-17T08:04:10.532Z,6.78
2018-07-17T08:06:41.089Z,7.80
2018-07-17T08:09:11.285Z,8.83
2018-07-17T08:11:41.673Z,7.73
2018-07-17T08:14:11.917Z,8.17
2018-07-17T08:16:42.381Z,9.20
2018-07-17T08:19:12.576Z,7.30
2018-07-17T08:21:43.050Z,7.50
2018-07-17T08:24:13.683Z,7.33
2018-07-17T08:26:44.039Z,6.90
2018-07-17T08:29:14.346Z,6.47
2018-07-17T08:31:45.110Z,6.45
2018-07-17T08:34:15.383Z,7.40
2018-07-17T08:36:45.709Z,8.40
2018-07-17T08:39:15.842Z,8.03
2018-07-17T08:41:46.085Z,7.77
2018-07-17T08:44:16.222Z,7.10
2018-07-17T08:46:47.078Z,7.10
2018-07-17T08:49:17.342Z,6.23
2018-07-17T08:51:47.379Z,7.37
2018-07-17T08:54:17.274Z,6.93
2018-07-17T08:56:47.841Z,8.23
2018-07-17T08:59:18.167Z,7.83
2018-07-17T09:01:49.317Z,7.70
2018-07-17T09:04:20.356Z,8.13
2018-07-17T09:06:51.281Z,9.73
2018-07-17T09:09:22.099Z,8.45
2018-07-17T09:14:05.688Z,8.47
2018-07-17T09:16:35.966Z,8.43
2018-07-17T09:19:06.148Z,8.53
2018-07-17T09:21:36.497Z,7.63
2018-07-17T09:24:07.669Z,8.63
2018-07-17T09:26:37.799Z,7.37
2018-07-17T09:29:07.947Z,7.70
2018-07-17T09:31:38.009Z,7.47
2018-07-17T09:34:08.272Z,6.73
2018-07-17T09:36:38.328Z,6.17
2018-07-17T09:39:09.779Z,6.33
2018-07-17T09:41:40.071Z,6.45
2018-07-17T09:44:10.295Z,5.67
2018-07-17T09:46:40.237Z,4.87
2018-07-17T09:49:10.432Z,4.60
2018-07-17T09:51:40.678Z,4.77
2018-07-17T09:54:10.946Z,4.20
2018-07-17T09:56:42.037Z,3.77
2018-07-17T09:59:13.140Z,4.37
2018-07-17T10:01:48.941Z,4.30
2018-07-17T10:04:19.607Z,4.30
2018-07-17T10:06:49.757Z,4.60
2018-07-17T10:09:20.156Z,4.23
2018-07-17T10:11:50.441Z,4.73
2018-07-17T10:14:20.662Z,4.13
2018-07-17T10:16:51.297Z,4.20
2018-07-17T10:19:21.659Z,3.67
2018-07-17T10:21:52.629Z,4.05
2018-07-17T10:24:23.880Z,5.20
2018-07-17T10:26:54.449Z,4.77
2018-07-17T10:29:26.129Z,4.10
2018-07-17T10:31:56.692Z,5.72
2018-07-17T10:34:28.486Z,5.37
2018-07-17T10:36:59.083Z,4.30
2018-07-17T10:39:29.863Z,5.15
2018-07-17T10:42:00.894Z,5.17
2018-07-17T10:44:32.021Z,5.37
2018-07-17T10:47:02.877Z,5.80
2018-07-17T10:49:33.829Z,6.70
2018-07-17T10:52:04.969Z,5.65
2018-07-17T10:54:36.423Z,6.87
2018-07-17T10:57:06.733Z,5.20
2018-07-17T11:04:05.766Z,5.80
2018-07-17T11:06:35.998Z,6.60
2018-07-17T11:09:07.082Z,7.20
2018-07-17T11:11:37.453Z,6.17
2018-07-17T11:14:08.193Z,5.10
2018-07-17T11:16:38.587Z,6.53
2018-07-17T11:19:08.522Z,7.13
2018-07-17T11:21:38.854Z,8.73
2018-07-17T11:24:08.976Z,8.30
2018-07-17T11:26:39.284Z,5.90
2018-07-17T11:29:09.439Z,7.73
2018-07-17T11:31:39.952Z,7.50
2018-07-17T11:34:10.360Z,6.13
2018-07-17T11:36:41.153Z,8.18
2018-07-17T11:39:12.381Z,6.80
2018-07-17T11:41:42.846Z,6.03
2018-07-17T11:44:13.493Z,5.70
2018-07-17T11:46:44.062Z,5.22
2018-07-17T11:49:14.324Z,6.10
2018-07-17T11:51:44.556Z,6.95
2018-07-17T11:54:15.124Z,7.00
2018-07-17T11:56:45.561Z,7.23
2018-07-17T11:59:15.664Z,6.00
2018-07-17T12:01:45.940Z,5.20
2018-07-17T12:04:16.335Z,4.67
2018-07-17T12:06:46.940Z,5.53
2018-07-17T12:09:17.330Z,4.92
2018-07-17T12:48:01.964Z,3.23
2018-07-17T12:50:31.986Z,2.57
2018-07-17T12:53:02.096Z,2.07
2018-07-17T12:55:32.590Z,2.87
2018-07-17T12:58:03.339Z,3.17
2018-07-17T13:00:33.471Z,2.77
2018-07-17T13:03:03.982Z,3.00
2018-07-17T13:05:34.337Z,3.00
2018-07-17T13:08:05.027Z,2.63
2018-07-17T13:10:35.421Z,2.90
2018-07-17T13:13:05.858Z,2.50
2018-07-17T13:15:36.298Z,2.90
2018-07-17T13:18:06.971Z,2.90
2018-07-17T13:20:37.453Z,3.00
2018-07-17T13:23:08.363Z,2.73
2018-07-17T13:25:39.012Z,2.30
2018-07-17T13:28:09.689Z,2.90
2018-07-17T13:30:40.530Z,2.80
2018-07-17T13:33:11.735Z,2.77
2018-07-17T13:35:44.240Z,2.60
2018-07-17T13:38:14.371Z,2.63
2018-07-17T13:40:44.392Z,2.50
2018-07-17T13:43:14.575Z,2.27
2018-07-17T13:45:44.818Z,2.87
2018-07-17T13:48:15.127Z,3.27
2018-07-17T13:50:45.466Z,2.47
2018-07-17T13:53:16.363Z,2.70
2018-07-17T13:55:46.993Z,2.20
2018-07-17T13:58:17.968Z,2.07
2018-07-17T14:00:48.444Z,2.23
2018-07-17T14:03:19.501Z,2.20
2018-07-17T14:05:49.799Z,2.00
2018-07-17T14:08:19.901Z,2.37
2018-07-17T14:10:50.006Z,2.50
2018-07-17T14:13:20.393Z,2.47
2018-07-17T14:15:50.977Z,2.57
2018-07-17T14:18:21.263Z,2.40
2018-07-17T14:20:51.522Z,2.40
2018-07-17T14:23:21.804Z,2.10
2018-07-17T14:25:52.107Z,2.40
2018-07-17T14:28:22.472Z,2.40
2018-07-17T14:30:53.281Z,2.00
2018-07-17T14:33:23.840Z,2.20
2018-07-17T14:35:54.150Z,2.13
2018-07-17T14:38:24.830Z,2.10
2018-07-17T14:40:55.374Z,1.90
2018-07-17T14:43:26.027Z,2.30
2018-07-17T14:45:56.396Z,2.20
2018-07-17T14:48:26.705Z,1.70
2018-07-17T14:50:57.455Z,1.82
2018-07-17T14:53:28.263Z,2.02
2018-07-17T14:55:59.272Z,2.00
2018-07-17T14:58:30.126Z,1.70
2018-07-17T15:01:00.533Z,1.60
2018-07-17T15:03:33.476Z,1.60
2018-07-17T15:06:04.035Z,1.60
2018-07-17T15:08:34.730Z,1.50
2018-07-17T15:11:05.316Z,1.80
2018-07-17T15:13:35.527Z,1.67
2018-07-17T15:16:06.095Z,1.67
2018-07-17T15:18:36.642Z,1.90
2018-07-17T15:21:07.263Z,1.87
2018-07-17T15:23:37.469Z,1.80
2018-07-17T15:26:08.189Z,1.85
2018-07-17T15:28:45.138Z,1.67
2018-07-17T15:31:15.770Z,1.90
2018-07-17T15:33:46.428Z,2.10
2018-07-17T15:36:16.790Z,2.30
2018-07-17T15:38:47.453Z,2.00
2018-07-17T15:41:18.152Z,2.45
2018-07-17T15:43:48.636Z,2.20
2018-07-17T15:46:19.000Z,2.30
2018-07-17T15:48:49.658Z,2.10
2018-07-17T15:51:19.869Z,2.50
2018-07-17T15:53:50.141Z,2.53
2018-07-17T15:56:20.326Z,2.47
2018-07-17T15:58:50.555Z,2.30
2018-07-17T16:01:20.840Z,2.33
2018-07-17T16:03:51.458Z,2.80
2018-07-17T16:06:21.783Z,2.50
2018-07-17T16:08:52.135Z,2.50
2018-07-17T16:11:23.319Z,2.50
2018-07-17T16:13:54.255Z,2.70
2018-07-17T16:16:25.023Z,3.00
2018-07-17T16:18:55.171Z,2.93
2018-07-17T16:21:27.407Z,2.67
2018-07-17T16:23:57.797Z,3.00
2018-07-17T16:26:29.163Z,3.17
2018-07-17T16:29:02.485Z,2.90
2018-07-17T16:31:33.350Z,2.70
2018-07-17T16:34:05.124Z,3.20
2018-07-17T16:36:35.484Z,3.10
2018-07-17T16:39:08.172Z,3.10
2018-07-17T16:41:38.537Z,3.20
2018-07-17T16:44:09.150Z,3.10
2018-07-17T16:46:39.958Z,3.07
2018-07-17T16:49:10.120Z,3.30
2018-07-17T16:51:40.858Z,3.20
2018-07-17T16:54:11.189Z,3.40
2018-07-17T16:56:41.673Z,3.90
2018-07-17T16:59:14.092Z,3.77
2018-07-17T17:01:44.273Z,3.23
2018-07-17T17:04:15.006Z,3.27
2018-07-17T17:06:48.110Z,3.20
2018-07-17T17:09:18.453Z,3.30
2018-07-17T17:11:50.861Z,3.60
2018-07-17T17:14:21.199Z,3.50
2018-07-17T17:16:52.544Z,3.40
2018-07-17T17:19:23.468Z,3.53
2018-07-17T17:21:54.313Z,3.55
2018-07-17T17:24:24.672Z,3.70
2018-07-17T17:26:54.684Z,3.70
2018-07-17T17:29:24.993Z,3.90
2018-07-17T17:31:56.495Z,4.20
2018-07-17T17:34:29.667Z,3.60
2018-07-17T17:36:59.620Z,3.70
2018-07-17T17:39:32.861Z,3.70
2018-07-17T17:42:03.148Z,3.73
2018-07-17T17:44:33.178Z,3.87
2018-07-17T17:47:03.614Z,4.30
2018-07-17T17:49:34.183Z,4.40
2018-07-17T17:52:04.444Z,4.60
2018-07-17T17:54:38.479Z,4.60
2018-07-17T17:57:09.019Z,4.10
2018-07-17T17:59:39.085Z,4.70
2018-07-17T18:02:09.934Z,4.17
2018-07-17T18:04:40.312Z,4.97
2018-07-17T18:07:10.550Z,4.90
2018-07-17T18:09:40.776Z,4.30
2018-07-17T18:12:11.374Z,4.53
2018-07-17T18:14:42.134Z,4.13
2018-07-17T18:17:12.432Z,4.97
2018-07-17T18:19:43.304Z,4.70
2018-07-17T18:22:13.655Z,5.10
2018-07-17T18:24:44.250Z,4.57
2018-07-17T18:27:14.649Z,5.00
2018-07-17T18:29:45.387Z,4.90
2018-07-17T18:32:15.822Z,4.50
2018-07-17T18:34:47.114Z,5.73
2018-07-17T18:37:18.141Z,5.13
2018-07-17T18:42:11.121Z,5.60
2018-07-17T18:44:41.523Z,5.00
2018-07-17T18:47:12.550Z,5.23
2018-07-17T18:49:42.843Z,5.93
2018-07-17T18:52:13.060Z,5.30
2018-07-17T18:54:43.430Z,4.72
2018-07-17T18:57:15.743Z,5.13
2018-07-17T18:59:46.818Z,5.27
2018-07-17T19:02:18.395Z,5.30
2018-07-17T19:04:51.513Z,4.50
2018-07-17T19:07:24.145Z,4.30
2018-07-17T19:09:57.722Z,5.22
2018-07-17T19:12:28.803Z,4.12
2018-07-17T19:14:59.424Z,4.37
2018-07-17T19:17:30.648Z,4.50
2018-07-17T19:20:03.058Z,4.00
2018-07-17T19:22:34.329Z,4.10
2018-07-17T19:25:13.257Z,3.93
2018-07-17T19:27:46.181Z,3.60
2018-07-17T19:30:17.662Z,3.60
2018-07-17T19:32:49.751Z,3.47
2018-07-17T19:35:23.580Z,3.67
2018-07-17T19:37:55.277Z,3.93
2018-07-17T19:40:30.805Z,3.20
2018-07-17T19:43:01.502Z,3.87
2018-07-17T19:45:32.953Z,3.30
2018-07-17T19:48:04.268Z,3.20
2018-07-17T19:50:40.015Z,3.50
2018-07-17T19:53:16.697Z,3.00
2018-07-17T19:55:47.867Z,3.70
2018-07-17T19:58:17.829Z,2.73
2018-07-17T20:00:47.852Z,3.30
2018-07-17T20:03:17.958Z,2.87
2018-07-17T20:05:48.483Z,3.33
2018-07-17T20:08:18.801Z,3.10
2018-07-17T20:10:49.597Z,2.90
2018-07-17T20:13:19.912Z,2.47
2018-07-17T20:15:50.248Z,2.60
2018-07-17T20:18:20.571Z,2.23
2018-07-17T20:20:50.859Z,2.43
2018-07-17T20:23:21.488Z,2.30
2018-07-17T20:25:51.834Z,2.30
2018-07-17T20:28:22.234Z,2.23
2018-07-17T20:30:52.555Z,2.20
2018-07-17T20:33:22.722Z,2.20
2018-07-17T20:35:53.024Z,2.60
2018-07-17T20:38:23.612Z,2.17
2018-07-17T20:40:54.358Z,2.10
2018-07-17T20:44:15.880Z,2.33
2018-07-17T20:46:50.313Z,2.13
2018-07-17T20:49:23.247Z,2.00
2018-07-17T20:51:57.406Z,2.00
2018-07-17T20:54:28.702Z,1.70
2018-07-17T20:57:01.112Z,2.10
2018-07-17T20:59:33.092Z,1.83
2018-07-17T21:02:04.189Z,1.90
2018-07-17T21:04:35.312Z,1.93
2018-07-17T21:07:07.651Z,2.37
2018-07-17T21:09:38.302Z,1.83
2018-07-17T21:12:13.113Z,2.17
2018-07-17T21:14:51.098Z,2.03
2018-07-17T21:17:25.251Z,2.20
2018-07-17T21:19:55.909Z,1.90
2018-07-17T21:22:27.534Z,1.90
2018-07-17T21:24:58.113Z,1.80
2018-07-17T21:27:34.647Z,1.97
2018-07-17T21:30:08.069Z,2.00
2018-07-17T21:32:42.840Z,2.13
2018-07-17T21:35:15.420Z,2.53
2018-07-17T21:37:45.905Z,2.43
2018-07-17T21:40:16.837Z,1.80
2018-07-17T21:42:50.248Z,1.70
2018-07-17T21:46:03.793Z,1.70
2018-07-17T21:48:33.758Z,2.00
2018-07-17T21:51:04.137Z,1.50
2018-07-17T21:53:34.187Z,1.98
2018-07-17T21:56:04.547Z,1.97
2018-07-17T21:58:34.734Z,1.77
2018-07-17T22:01:04.974Z,1.83
2018-07-17T22:03:35.262Z,1.60
2018-07-17T22:06:05.622Z,1.62
2018-07-17T22:08:35.752Z,2.40
2018-07-17T22:11:05.813Z,1.60
2018-07-17T22:13:35.890Z,1.87
2018-07-17T22:16:06.283Z,2.13
2018-07-17T22:18:36.349Z,2.40
2018-07-17T22:21:07.347Z,2.27
2018-07-17T22:23:38.487Z,2.08
2018-07-17T22:26:09.709Z,2.08
2018-07-17T22:28:40.239Z,2.20
2018-07-17T22:31:10.326Z,2.30
2018-07-17T22:33:40.463Z,1.90
2018-07-17T22:36:10.543Z,2.20
2018-07-17T22:38:40.773Z,2.30
2018-07-17T22:41:10.973Z,2.20
2018-07-17T22:43:41.041Z,2.40
2018-07-17T22:46:11.462Z,2.20
2018-07-17T22:48:41.562Z,2.23
2018-07-17T22:51:11.781Z,2.40
2018-07-17T22:53:41.902Z,1.97
2018-07-17T22:56:12.107Z,2.20
2018-07-17T22:58:42.380Z,2.40
2018-07-17T23:01:12.604Z,2.35
2018-07-17T23:03:42.756Z,1.90
2018-07-17T23:06:12.993Z,2.35
2018-07-17T23:08:43.114Z,2.00
2018-07-17T23:11:13.371Z,2.03
2018-07-17T23:13:43.518Z,2.50
2018-07-17T23:16:13.634Z,2.40
2018-07-17T23:18:43.813Z,2.77
2018-07-17T23:21:13.800Z,2.17
2018-07-17T23:23:44.172Z,2.27
2018-07-17T23:26:14.497Z,2.25
2018-07-17T23:28:44.597Z,2.05
2018-07-17T23:31:14.933Z,2.30
2018-07-17T23:33:44.940Z,2.08
2018-07-17T23:36:15.126Z,2.43
2018-07-17T23:38:45.492Z,2.10
2018-07-17T23:41:15.365Z,2.73
2018-07-17T23:43:45.803Z,2.20
2018-07-17T23:46:16.219Z,2.73
2018-07-17T23:48:46.209Z,2.37
2018-07-17T23:51:17.022Z,2.43
2018-07-17T23:53:47.618Z,2.00
2018-07-17T23:56:17.662Z,2.90
2018-07-17T23:58:49.010Z,2.53
